createdAt,value
2022-11-28T00:01:32.720Z,12.68
2022-11-28T00:04:35.022Z,12.90
2022-11-28T00:07:37.303Z,12.50
2022-11-28T00:10:41.116Z,12.57
2022-11-28T00:13:44.407Z,12.35
2022-11-28T00:16:47.395Z,11.75
2022-11-28T00:19:49.879Z,13.03
2022-11-28T00:22:52.318Z,11.73
2022-11-28T00:26:16.698Z,11.45
2022-11-28T00:29:18.980Z,10.45
2022-11-28T00:32:21.376Z,11.93
2022-11-28T00:35:23.740Z,10.20
2022-11-28T00:38:26.083Z,13.63
2022-11-28T00:41:31.075Z,12.80
2022-11-28T00:44:33.385Z,11.73
2022-11-28T00:47:35.730Z,11.82
2022-11-28T00:50:37.959Z,12.53
2022-11-28T00:53:42.570Z,11.47
2022-11-28T00:56:44.859Z,11.00
2022-11-28T00:59:47.152Z,12.50
2022-11-28T01:02:49.562Z,11.82
2022-11-28T01:05:51.866Z,11.63
2022-11-28T01:08:55.201Z,11.23
2022-11-28T01:11:57.539Z,12.23
2022-11-28T01:15:00.081Z,12.15
2022-11-28T01:18:02.856Z,12.30
2022-11-28T01:21:06.225Z,11.90
2022-11-28T01:24:08.793Z,11.40
2022-11-28T01:27:12.182Z,10.75
2022-11-28T01:30:14.603Z,11.35
2022-11-28T01:33:16.879Z,11.32
2022-11-28T01:36:20.061Z,10.50
2022-11-28T01:39:22.317Z,10.07
2022-11-28T01:42:24.734Z,11.48
2022-11-28T01:45:32.316Z,12.48
2022-11-28T01:48:39.695Z,11.68
2022-11-28T01:51:45.720Z,11.73
2022-11-28T01:54:52.096Z,10.83
2022-11-28T01:57:55.571Z,10.93
2022-11-28T02:00:58.466Z,11.25
2022-11-28T02:04:03.836Z,11.52
2022-11-28T02:07:06.244Z,12.00
2022-11-28T02:10:10.404Z,11.30
2022-11-28T02:13:23.908Z,11.60
2022-11-28T02:16:44.122Z,11.50
2022-11-28T02:19:46.583Z,10.32
2022-11-28T02:23:15.622Z,10.80
2022-11-28T02:26:43.348Z,10.87
2022-11-28T02:29:56.336Z,10.23
2022-11-28T02:33:30.129Z,11.07
2022-11-28T02:36:36.025Z,11.13
2022-11-28T02:40:14.201Z,9.93
2022-11-28T02:43:44.127Z,11.87
2022-11-28T02:46:58.598Z,10.32
2022-11-28T02:50:13.891Z,10.45
2022-11-28T02:53:20.465Z,11.27
2022-11-28T02:56:26.174Z,10.50
2022-11-28T02:59:33.470Z,10.37
2022-11-28T03:02:35.834Z,11.23
2022-11-28T03:05:54.197Z,10.75
2022-11-28T03:09:14.984Z,10.48
2022-11-28T03:12:36.067Z,10.77
2022-11-28T03:15:46.953Z,11.63
2022-11-28T03:19:07.720Z,10.98
2022-11-28T03:22:30.724Z,12.40
2022-11-28T03:25:48.395Z,11.52
2022-11-28T03:29:03.785Z,12.90
2022-11-28T03:32:10.072Z,10.53
2022-11-28T03:35:18.252Z,12.43
2022-11-28T03:38:25.604Z,11.30
2022-11-28T03:41:34.226Z,11.68
2022-11-28T03:45:00.020Z,12.93
2022-11-28T03:48:10.059Z,14.07
2022-11-28T03:51:19.055Z,12.68
2022-11-28T03:54:40.668Z,11.73
2022-11-28T03:57:59.289Z,10.38
2022-11-28T04:01:25.222Z,12.07
2022-11-28T04:04:37.038Z,10.47
2022-11-28T04:07:49.158Z,12.25
2022-11-28T04:11:09.136Z,11.30
2022-11-28T04:14:22.850Z,12.90
2022-11-28T04:17:50.359Z,16.17
2022-11-28T04:21:04.183Z,12.40
2022-11-28T04:24:11.031Z,14.52
2022-11-28T04:27:16.806Z,13.13
2022-11-28T04:30:19.281Z,13.60
2022-11-28T04:33:23.551Z,13.63
2022-11-28T04:36:27.029Z,14.07
2022-11-28T04:39:30.841Z,11.02
2022-11-28T04:42:38.085Z,12.27
2022-11-28T04:45:45.711Z,13.10
2022-11-28T04:48:48.249Z,13.07
2022-11-28T04:52:16.227Z,13.60
2022-11-28T04:55:27.357Z,13.10
2022-11-28T04:58:39.571Z,13.98
2022-11-28T05:01:43.698Z,14.48
2022-11-28T05:04:46.117Z,16.90
2022-11-28T05:07:48.464Z,14.90
2022-11-28T05:10:50.913Z,16.23
2022-11-28T05:13:54.192Z,16.02
2022-11-28T05:16:56.501Z,15.60
2022-11-28T05:19:59.070Z,15.70
2022-11-28T05:23:01.388Z,16.20
2022-11-28T05:26:08.183Z,15.07
2022-11-28T05:29:10.676Z,15.05
2022-11-28T05:32:13.673Z,17.30
2022-11-28T05:35:16.035Z,14.20
2022-11-28T05:38:18.301Z,15.07
2022-11-28T05:41:24.772Z,16.08
2022-11-28T05:44:27.397Z,16.25
2022-11-28T05:47:33.572Z,15.80
2022-11-28T05:50:39.888Z,16.80
2022-11-28T05:53:42.438Z,16.13
2022-11-28T05:56:44.747Z,17.17
2022-11-28T05:59:47.173Z,15.88
2022-11-28T06:02:49.455Z,16.40
2022-11-28T06:05:51.878Z,17.20
2022-11-28T06:08:54.743Z,17.87
2022-11-28T06:11:57.000Z,16.35
2022-11-28T06:14:59.331Z,17.42
2022-11-28T06:18:01.654Z,17.40
2022-11-28T06:21:05.525Z,15.83
2022-11-28T06:24:08.188Z,17.30
2022-11-28T06:27:10.528Z,17.80
2022-11-28T06:30:13.427Z,17.65
2022-11-28T06:33:15.806Z,16.42
2022-11-28T06:36:22.077Z,16.03
2022-11-28T06:39:24.551Z,17.00
2022-11-28T06:42:26.862Z,15.98
2022-11-28T06:45:29.563Z,16.65
2022-11-28T06:48:32.530Z,15.52
2022-11-28T06:51:34.801Z,16.33
2022-11-28T06:54:37.158Z,18.33
2022-11-28T06:57:39.809Z,17.27
2022-11-28T07:00:42.152Z,16.33
2022-11-28T07:03:44.816Z,17.02
2022-11-28T07:06:47.112Z,16.43
2022-11-28T07:09:51.068Z,17.00
2022-11-28T07:12:54.914Z,16.90
2022-11-28T07:15:57.154Z,16.20
2022-11-28T07:18:59.979Z,16.45
2022-11-28T07:22:02.384Z,16.80
2022-11-28T07:25:05.034Z,16.77
2022-11-28T07:28:07.371Z,16.00
2022-11-28T07:31:22.005Z,17.48
2022-11-28T07:34:24.344Z,17.55
2022-11-28T07:37:26.760Z,16.33
2022-11-28T07:40:29.059Z,14.90
2022-11-28T07:43:31.515Z,16.35
2022-11-28T07:46:34.336Z,15.88
2022-11-28T07:49:37.090Z,16.50
2022-11-28T07:52:39.404Z,14.87
2022-11-28T07:55:41.630Z,14.37
2022-11-28T07:58:45.464Z,14.65
2022-11-28T08:01:48.838Z,13.95
2022-11-28T08:04:55.110Z,14.40
2022-11-28T08:07:57.767Z,13.07
2022-11-28T08:11:02.252Z,13.83
2022-11-28T08:14:05.538Z,11.82
2022-11-28T08:17:07.874Z,12.13
2022-11-28T08:20:10.596Z,12.50
2022-11-28T08:23:12.840Z,12.60
2022-11-28T08:26:16.867Z,15.03
2022-11-28T08:29:19.138Z,13.55
2022-11-28T08:32:21.415Z,12.52
2022-11-28T08:35:23.872Z,13.23
2022-11-28T08:38:26.163Z,13.07
2022-11-28T08:41:28.599Z,13.63
2022-11-28T08:44:31.047Z,12.18
2022-11-28T08:47:33.694Z,12.02
2022-11-28T08:50:36.090Z,11.95
2022-11-28T08:53:38.385Z,11.83
2022-11-28T08:56:40.705Z,12.80
2022-11-28T08:59:43.338Z,11.25
2022-11-28T09:02:45.799Z,10.82
2022-11-28T09:05:48.602Z,11.52
2022-11-28T09:08:51.550Z,11.70
2022-11-28T09:11:53.844Z,11.63
2022-11-28T09:14:56.121Z,12.98
2022-11-28T09:17:58.764Z,13.40
2022-11-28T09:21:02.808Z,11.43
2022-11-28T09:24:05.609Z,12.53
2022-11-28T09:27:07.965Z,12.50
2022-11-28T09:30:10.715Z,12.25
2022-11-28T09:33:13.536Z,12.27
2022-11-28T09:36:21.369Z,13.25
2022-11-28T09:39:23.771Z,12.17
2022-11-28T09:42:33.916Z,12.80
2022-11-28T09:45:36.268Z,11.45
2022-11-28T09:48:42.984Z,11.63
2022-11-28T09:52:03.823Z,11.98
2022-11-28T09:55:35.683Z,11.43
2022-11-28T09:58:58.988Z,13.27
2022-11-28T10:02:26.182Z,12.38
2022-11-28T10:05:40.073Z,12.00
2022-11-28T10:08:47.521Z,11.52
2022-11-28T10:12:17.560Z,12.43
2022-11-28T10:15:26.192Z,12.67
2022-11-28T10:18:35.831Z,12.70
2022-11-28T10:21:42.613Z,13.20
2022-11-28T10:24:57.425Z,12.80
2022-11-28T10:27:59.804Z,11.70
2022-11-28T10:31:16.768Z,13.37
2022-11-28T10:34:46.598Z,13.40
2022-11-28T10:37:49.380Z,12.50
2022-11-28T10:41:04.967Z,11.45
2022-11-28T10:44:21.635Z,13.83
2022-11-28T10:48:03.988Z,13.27
2022-11-28T10:51:44.176Z,13.85
2022-11-28T10:54:46.444Z,13.60
2022-11-28T10:58:22.304Z,12.98
2022-11-28T11:01:29.873Z,12.57
2022-11-28T11:04:33.891Z,11.47
2022-11-28T11:07:36.316Z,12.80
2022-11-28T11:10:44.259Z,13.07
2022-11-28T11:14:01.546Z,12.73
2022-11-28T11:17:04.130Z,13.37
2022-11-28T11:20:34.441Z,13.70
2022-11-28T11:23:38.453Z,13.63
2022-11-28T11:26:44.103Z,13.35
2022-11-28T11:29:50.285Z,13.98
2022-11-28T11:32:54.798Z,12.50
2022-11-28T11:35:57.059Z,13.50
2022-11-28T11:39:09.199Z,12.38
2022-11-28T11:42:20.808Z,12.35
2022-11-28T11:45:29.765Z,13.30
2022-11-28T11:48:46.084Z,13.60
2022-11-28T11:51:56.313Z,12.57
2022-11-28T11:55:04.451Z,14.30
2022-11-28T11:58:07.206Z,13.32
2022-11-28T12:01:11.477Z,15.10
2022-11-28T12:19:56.939Z,13.32
2022-11-28T12:39:33.542Z,12.75
2022-11-28T12:47:52.562Z,12.40
2022-11-28T12:51:16.321Z,10.90
2022-11-28T12:54:36.951Z,11.10
2022-11-28T12:58:04.030Z,11.73
2022-11-28T13:01:31.026Z,11.48
2022-11-28T13:04:51.417Z,12.52
2022-11-28T13:07:56.835Z,13.77
2022-11-28T13:10:59.181Z,12.63
2022-11-28T13:14:17.470Z,12.25
2022-11-28T13:17:30.733Z,13.23
2022-11-28T13:20:42.251Z,13.65
2022-11-28T13:24:05.317Z,11.37
2022-11-28T13:27:32.424Z,14.00
2022-11-28T13:30:44.591Z,12.88
2022-11-28T13:33:56.744Z,14.32
2022-11-28T13:40:53.119Z,12.80
2022-11-28T13:44:26.357Z,13.60
2022-11-28T13:47:33.660Z,12.88
2022-11-28T13:50:40.424Z,13.60
2022-11-28T13:53:44.169Z,13.65
2022-11-28T13:57:05.705Z,14.20
2022-11-28T14:00:25.314Z,13.30
2022-11-28T14:03:27.837Z,14.40
2022-11-28T14:06:46.929Z,12.90
2022-11-28T14:10:31.580Z,13.25
2022-11-28T14:13:52.658Z,14.70
2022-11-28T14:17:21.554Z,14.70
2022-11-28T14:20:55.097Z,36.30
2022-11-28T14:24:10.764Z,84.40
2022-11-28T14:27:28.359Z,23.75
2022-11-28T14:30:36.476Z,26.03
2022-11-28T14:33:40.901Z,16.50
2022-11-28T14:36:43.921Z,15.18
2022-11-28T14:39:50.238Z,14.43
2022-11-28T14:43:42.667Z,14.80
2022-11-28T14:47:16.121Z,13.67
2022-11-28T14:50:20.788Z,13.73
2022-11-28T14:53:37.129Z,15.98
2022-11-28T14:56:40.507Z,15.35
2022-11-28T14:59:43.581Z,15.43
2022-11-28T15:03:23.683Z,15.10
2022-11-28T15:06:33.211Z,15.23
2022-11-28T15:09:42.880Z,16.63
2022-11-28T15:12:52.107Z,15.65
2022-11-28T15:15:54.622Z,14.57
2022-11-28T15:19:08.781Z,15.13
2022-11-28T15:22:31.851Z,14.03
2022-11-28T15:25:37.370Z,14.50
2022-11-28T15:28:39.707Z,16.27
2022-11-28T15:31:43.179Z,15.88
2022-11-28T15:35:00.750Z,16.60
2022-11-28T15:38:04.061Z,16.80
2022-11-28T15:41:07.037Z,16.52
2022-11-28T15:44:13.043Z,18.77
2022-11-28T15:47:20.062Z,17.73
2022-11-28T15:50:25.338Z,16.93
2022-11-28T15:53:28.876Z,26.70
2022-11-28T15:56:31.473Z,18.20
2022-11-28T15:59:34.068Z,17.92
2022-11-28T16:02:36.981Z,21.17
2022-11-28T16:05:51.484Z,23.17
2022-11-28T16:09:04.193Z,24.07
2022-11-28T16:12:12.977Z,21.48
2022-11-28T16:15:23.100Z,18.75
2022-11-28T16:18:26.836Z,18.17
2022-11-28T16:21:33.853Z,17.73
2022-11-28T16:24:55.593Z,16.00
2022-11-28T16:27:58.423Z,16.95
2022-11-28T16:31:00.830Z,19.33
2022-11-28T16:34:03.492Z,16.13
2022-11-28T16:37:11.137Z,17.97
2022-11-28T16:40:17.126Z,15.83
2022-11-28T16:43:40.518Z,16.15
2022-11-28T16:46:51.811Z,16.98
2022-11-28T16:50:14.207Z,19.13
2022-11-28T16:53:46.292Z,18.00
2022-11-28T16:56:48.701Z,18.93
2022-11-28T16:59:54.951Z,21.25
2022-11-28T17:02:57.579Z,27.67
2022-11-28T17:05:59.884Z,28.77
2022-11-28T17:09:02.327Z,26.57
2022-11-28T17:12:07.756Z,24.27
2022-11-28T17:15:16.186Z,26.77
2022-11-28T17:18:18.509Z,21.55
2022-11-28T17:21:46.471Z,22.90
2022-11-28T17:24:50.107Z,19.60
2022-11-28T17:27:53.074Z,19.50
2022-11-28T17:30:58.506Z,19.65
2022-11-28T17:34:00.808Z,18.00
2022-11-28T17:37:03.365Z,17.38
2022-11-28T17:40:25.324Z,18.77
2022-11-28T17:43:27.912Z,18.57
2022-11-28T17:46:30.346Z,18.77
2022-11-28T17:49:32.990Z,23.42
2022-11-28T17:52:35.229Z,34.95
2022-11-28T17:55:42.342Z,33.67
2022-11-28T17:58:44.987Z,29.43
2022-11-28T18:01:48.612Z,25.30
2022-11-28T18:04:50.856Z,24.65
2022-11-28T18:07:53.598Z,25.75
2022-11-28T18:11:08.902Z,23.83
2022-11-28T18:14:11.990Z,24.40
2022-11-28T18:17:14.329Z,22.85
2022-11-28T18:20:16.729Z,22.90
2022-11-28T18:23:19.288Z,22.85
2022-11-28T18:26:24.116Z,21.57
2022-11-28T18:29:26.941Z,23.03
2022-11-28T18:32:29.834Z,20.70
2022-11-28T18:35:32.730Z,19.08
2022-11-28T18:38:35.101Z,18.90
2022-11-28T18:41:37.524Z,18.30
2022-11-28T18:44:39.767Z,18.93
2022-11-28T18:47:42.163Z,19.60
2022-11-28T18:50:44.431Z,19.55
2022-11-28T18:53:48.228Z,18.27
2022-11-28T18:56:50.741Z,17.53
2022-11-28T18:59:55.298Z,17.67
2022-11-28T19:02:57.910Z,17.45
2022-11-28T19:06:00.255Z,16.95
2022-11-28T19:09:12.246Z,23.63
2022-11-28T19:12:15.251Z,22.67
2022-11-28T19:15:17.546Z,20.93
2022-11-28T19:18:19.836Z,18.63
2022-11-28T19:21:24.379Z,17.50
2022-11-28T19:24:27.037Z,18.42
2022-11-28T19:27:29.393Z,18.30
2022-11-28T19:30:31.641Z,16.93
2022-11-28T19:33:34.133Z,18.00
2022-11-28T19:36:45.475Z,17.75
2022-11-28T19:39:47.951Z,18.05
2022-11-28T19:42:50.246Z,17.40
2022-11-28T19:45:56.731Z,19.97
2022-11-28T19:48:59.127Z,20.35
2022-11-28T19:52:01.378Z,18.00
2022-11-28T19:55:03.831Z,17.75
2022-11-28T19:58:06.167Z,17.20
2022-11-28T20:01:23.078Z,18.53
2022-11-28T20:04:27.796Z,17.63
2022-11-28T20:07:30.139Z,17.33
2022-11-28T20:10:36.093Z,18.38
2022-11-28T20:13:39.140Z,17.23
2022-11-28T20:16:41.887Z,17.33
2022-11-28T20:19:45.746Z,18.25
2022-11-28T20:22:48.385Z,19.45
2022-11-28T20:25:50.713Z,16.10
2022-11-28T20:28:54.660Z,17.20
2022-11-28T20:31:57.531Z,18.07
2022-11-28T20:35:01.786Z,16.40
2022-11-28T20:38:04.146Z,16.20
2022-11-28T20:41:09.048Z,16.70
2022-11-28T20:44:11.444Z,16.40
2022-11-28T20:47:13.979Z,15.40
2022-11-28T20:50:16.247Z,16.48
2022-11-28T20:53:23.664Z,16.85
2022-11-28T20:56:30.953Z,15.80
2022-11-28T20:59:33.387Z,16.27
2022-11-28T21:02:35.741Z,16.53
2022-11-28T21:05:38.145Z,15.98
2022-11-28T21:08:41.020Z,15.45
2022-11-28T21:11:56.987Z,16.33
2022-11-28T21:15:02.104Z,15.50
2022-11-28T21:18:04.759Z,16.10
2022-11-28T21:21:18.463Z,16.33
2022-11-28T21:24:20.781Z,15.82
2022-11-28T21:27:23.080Z,15.85
2022-11-28T21:30:25.344Z,16.40
2022-11-28T21:33:27.588Z,17.67
2022-11-28T21:36:30.542Z,16.75
2022-11-28T21:39:32.883Z,15.70
2022-11-28T21:42:35.133Z,16.10
2022-11-28T21:45:37.667Z,14.77
2022-11-28T21:48:40.145Z,17.03
2022-11-28T21:51:42.467Z,15.88
2022-11-28T21:54:44.889Z,17.73
2022-11-28T21:57:47.520Z,16.75
2022-11-28T22:00:56.462Z,16.07
2022-11-28T22:04:02.827Z,15.53
2022-11-28T22:07:07.068Z,17.05
2022-11-28T22:10:09.667Z,17.25
2022-11-28T22:13:12.059Z,17.30
2022-11-28T22:16:19.603Z,15.43
2022-11-28T22:19:22.338Z,15.87
2022-11-28T22:22:27.438Z,15.77
2022-11-28T22:25:29.840Z,16.10
2022-11-28T22:28:34.203Z,14.77
2022-11-28T22:31:36.745Z,16.07
2022-11-28T22:34:40.185Z,16.73
2022-11-28T22:37:43.511Z,16.10
2022-11-28T22:40:45.961Z,15.27
2022-11-28T22:43:48.584Z,16.40
2022-11-28T22:46:52.448Z,15.60
2022-11-28T22:49:54.721Z,16.07
2022-11-28T22:52:57.134Z,16.88
2022-11-28T22:56:07.781Z,16.48
2022-11-28T22:59:14.651Z,15.93
2022-11-28T23:02:17.467Z,15.80
2022-11-28T23:05:20.604Z,14.40
2022-11-28T23:08:23.611Z,16.08
2022-11-28T23:11:28.104Z,16.40
2022-11-28T23:14:30.777Z,15.88
2022-11-28T23:17:33.978Z,15.67
2022-11-28T23:20:36.430Z,14.50
2022-11-28T23:23:39.509Z,14.73
2022-11-28T23:26:42.108Z,13.65
2022-11-28T23:29:44.861Z,15.32
2022-11-28T23:32:48.700Z,14.70
2022-11-28T23:35:51.224Z,14.20
2022-11-28T23:38:58.958Z,13.88
2022-11-28T23:42:01.334Z,14.02
2022-11-28T23:45:04.103Z,13.65
2022-11-28T23:48:06.571Z,12.87
2022-11-28T23:51:08.866Z,14.10
2022-11-28T23:54:11.893Z,13.60
2022-11-28T23:57:14.154Z,13.68
